sensor_id;sensor_type;location;lat;lon;timestamp;temperature;humidity
65559;DHT22;52203;51.998;5.140;2023-04-24T00:02:12;5.66;118.99
65559;DHT22;52203;51.998;5.140;2023-04-24T00:04:38;5.65;118.99
65559;DHT22;52203;51.998;5.140;2023-04-24T00:07:06;5.64;118.99
65559;DHT22;52203;51.998;5.140;2023-04-24T00:09:32;5.64;118.99
65559;DHT22;52203;51.998;5.140;2023-04-24T00:11:58;5.65;118.99
65559;DHT22;52203;51.998;5.140;2023-04-24T00:14:24;5.61;118.99
65559;DHT22;52203;51.998;5.140;2023-04-24T00:16:49;5.61;118.99
65559;DHT22;52203;51.998;5.140;2023-04-24T00:19:15;5.60;118.99
65559;DHT22;52203;51.998;5.140;2023-04-24T00:21:40;5.62;118.99
65559;DHT22;52203;51.998;5.140;2023-04-24T00:24:07;5.62;118.99
65559;DHT22;52203;51.998;5.140;2023-04-24T00:26:34;5.62;118.99
65559;DHT22;52203;51.998;5.140;2023-04-24T00:29:00;5.62;118.99
65559;DHT22;52203;51.998;5.140;2023-04-24T00:31:25;5.62;118.99
65559;DHT22;52203;51.998;5.140;2023-04-24T00:33:51;5.64;118.99
65559;DHT22;52203;51.998;5.140;2023-04-24T00:36:16;5.64;118.99
65559;DHT22;52203;51.998;5.140;2023-04-24T00:38:44;5.66;118.99
65559;DHT22;52203;51.998;5.140;2023-04-24T00:41:10;5.67;118.99
65559;DHT22;52203;51.998;5.140;2023-04-24T00:43:35;5.69;118.99
65559;DHT22;52203;51.998;5.140;2023-04-24T00:46:01;5.68;118.99
65559;DHT22;52203;51.998;5.140;2023-04-24T00:48:27;5.69;118.99
65559;DHT22;52203;51.998;5.140;2023-04-24T00:50:53;5.70;118.99
65559;DHT22;52203;51.998;5.140;2023-04-24T00:53:18;5.72;118.99
65559;DHT22;52203;51.998;5.140;2023-04-24T00:55:44;5.72;118.99
65559;DHT22;52203;51.998;5.140;2023-04-24T00:58:10;5.74;118.99
65559;DHT22;52203;51.998;5.140;2023-04-24T01:00:36;5.75;118.99
65559;DHT22;52203;51.998;5.140;2023-04-24T01:03:04;5.74;118.99
65559;DHT22;52203;51.998;5.140;2023-04-24T01:05:30;5.72;118.99
65559;DHT22;52203;51.998;5.140;2023-04-24T01:07:56;5.74;118.99
65559;DHT22;52203;51.998;5.140;2023-04-24T01:10:22;5.76;118.99
65559;DHT22;52203;51.998;5.140;2023-04-24T01:12:50;5.75;118.99
65559;DHT22;52203;51.998;5.140;2023-04-24T01:15:15;5.80;118.99
65559;DHT22;52203;51.998;5.140;2023-04-24T01:17:40;5.80;118.99
65559;DHT22;52203;51.998;5.140;2023-04-24T01:20:06;5.78;118.99
65559;DHT22;52203;51.998;5.140;2023-04-24T01:22:35;5.80;118.99
65559;DHT22;52203;51.998;5.140;2023-04-24T01:25:01;5.79;118.99
65559;DHT22;52203;51.998;5.140;2023-04-24T01:27:27;5.78;118.99
65559;DHT22;52203;51.998;5.140;2023-04-24T01:29:53;5.79;118.99
65559;DHT22;52203;51.998;5.140;2023-04-24T01:32:19;5.79;118.99
65559;DHT22;52203;51.998;5.140;2023-04-24T01:34:45;5.81;118.99
65559;DHT22;52203;51.998;5.140;2023-04-24T01:37:11;5.81;118.99
65559;DHT22;52203;51.998;5.140;2023-04-24T01:39:37;5.82;118.99
65559;DHT22;52203;51.998;5.140;2023-04-24T01:42:03;5.81;118.99
65559;DHT22;52203;51.998;5.140;2023-04-24T01:44:30;5.82;118.99
65559;DHT22;52203;51.998;5.140;2023-04-24T01:46:56;5.84;118.99
65559;DHT22;52203;51.998;5.140;2023-04-24T01:49:21;5.82;118.99
65559;DHT22;52203;51.998;5.140;2023-04-24T01:51:48;5.82;118.99
65559;DHT22;52203;51.998;5.140;2023-04-24T01:54:13;5.84;118.99
65559;DHT22;52203;51.998;5.140;2023-04-24T01:56:42;5.82;118.99
65559;DHT22;52203;51.998;5.140;2023-04-24T01:59:10;5.82;118.99
65559;DHT22;52203;51.998;5.140;2023-04-24T02:01:37;5.81;118.99
65559;DHT22;52203;51.998;5.140;2023-04-24T02:04:03;5.80;118.99
65559;DHT22;52203;51.998;5.140;2023-04-24T02:06:29;5.80;118.99
65559;DHT22;52203;51.998;5.140;2023-04-24T02:08:57;5.78;118.99
65559;DHT22;52203;51.998;5.140;2023-04-24T02:11:22;5.78;118.99
65559;DHT22;52203;51.998;5.140;2023-04-24T02:13:48;5.74;118.99
65559;DHT22;52203;51.998;5.140;2023-04-24T02:16:13;5.75;118.99
65559;DHT22;52203;51.998;5.140;2023-04-24T02:18:39;5.72;118.99
65559;DHT22;52203;51.998;5.140;2023-04-24T02:21:04;5.72;118.99
65559;DHT22;52203;51.998;5.140;2023-04-24T02:23:30;5.72;118.99
65559;DHT22;52203;51.998;5.140;2023-04-24T02:25:56;5.72;118.99
65559;DHT22;52203;51.998;5.140;2023-04-24T02:28:21;5.71;118.99
65559;DHT22;52203;51.998;5.140;2023-04-24T02:30:47;5.74;118.99
65559;DHT22;52203;51.998;5.140;2023-04-24T02:33:12;5.75;118.99
65559;DHT22;52203;51.998;5.140;2023-04-24T02:35:37;5.72;118.99
65559;DHT22;52203;51.998;5.140;2023-04-24T02:38:03;5.70;118.99
65559;DHT22;52203;51.998;5.140;2023-04-24T02:40:29;5.72;118.99
65559;DHT22;52203;51.998;5.140;2023-04-24T02:42:55;5.75;118.99
65559;DHT22;52203;51.998;5.140;2023-04-24T02:45:21;5.74;118.99
65559;DHT22;52203;51.998;5.140;2023-04-24T02:47:46;5.77;118.99
65559;DHT22;52203;51.998;5.140;2023-04-24T02:50:12;5.77;118.99
65559;DHT22;52203;51.998;5.140;2023-04-24T02:52:37;5.76;118.99
65559;DHT22;52203;51.998;5.140;2023-04-24T02:55:03;5.77;118.99
65559;DHT22;52203;51.998;5.140;2023-04-24T02:57:28;5.76;118.99
65559;DHT22;52203;51.998;5.140;2023-04-24T02:59:54;5.75;118.99
65559;DHT22;52203;51.998;5.140;2023-04-24T03:02:19;5.74;118.99
65559;DHT22;52203;51.998;5.140;2023-04-24T03:04:46;5.72;118.99
65559;DHT22;52203;51.998;5.140;2023-04-24T03:07:13;5.70;118.99
65559;DHT22;52203;51.998;5.140;2023-04-24T03:09:40;5.68;118.99
65559;DHT22;52203;51.998;5.140;2023-04-24T03:12:06;5.68;118.99
65559;DHT22;52203;51.998;5.140;2023-04-24T03:14:31;5.70;118.99
65559;DHT22;52203;51.998;5.140;2023-04-24T03:16:57;5.67;118.99
65559;DHT22;52203;51.998;5.140;2023-04-24T03:19:22;5.65;118.99
65559;DHT22;52203;51.998;5.140;2023-04-24T03:21:48;5.63;118.99
65559;DHT22;52203;51.998;5.140;2023-04-24T03:24:14;5.59;118.99
65559;DHT22;52203;51.998;5.140;2023-04-24T03:26:39;5.57;118.99
65559;DHT22;52203;51.998;5.140;2023-04-24T03:29:05;5.53;118.99
65559;DHT22;52203;51.998;5.140;2023-04-24T03:31:30;5.51;118.99
65559;DHT22;52203;51.998;5.140;2023-04-24T03:33:56;5.50;118.99
65559;DHT22;52203;51.998;5.140;2023-04-24T03:36:21;5.49;118.99
65559;DHT22;52203;51.998;5.140;2023-04-24T03:38:47;5.47;118.99
65559;DHT22;52203;51.998;5.140;2023-04-24T03:41:12;5.45;118.99
65559;DHT22;52203;51.998;5.140;2023-04-24T03:43:37;5.43;118.99
65559;DHT22;52203;51.998;5.140;2023-04-24T03:46:04;5.45;118.99
65559;DHT22;52203;51.998;5.140;2023-04-24T03:48:29;5.43;118.99
65559;DHT22;52203;51.998;5.140;2023-04-24T03:50:55;5.43;118.99
65559;DHT22;52203;51.998;5.140;2023-04-24T03:53:20;5.42;118.99
65559;DHT22;52203;51.998;5.140;2023-04-24T03:55:46;5.41;118.99
65559;DHT22;52203;51.998;5.140;2023-04-24T03:58:12;5.37;118.99
65559;DHT22;52203;51.998;5.140;2023-04-24T04:00:39;5.37;118.99
65559;DHT22;52203;51.998;5.140;2023-04-24T04:03:05;5.37;118.99
65559;DHT22;52203;51.998;5.140;2023-04-24T04:05:31;5.40;118.99
65559;DHT22;52203;51.998;5.140;2023-04-24T04:07:56;5.46;118.99
65559;DHT22;52203;51.998;5.140;2023-04-24T04:10:22;5.48;118.99
65559;DHT22;52203;51.998;5.140;2023-04-24T04:12:48;5.48;118.99
65559;DHT22;52203;51.998;5.140;2023-04-24T04:15:13;5.47;118.99
65559;DHT22;52203;51.998;5.140;2023-04-24T04:17:39;5.46;118.99
65559;DHT22;52203;51.998;5.140;2023-04-24T04:20:05;5.41;118.99
65559;DHT22;52203;51.998;5.140;2023-04-24T04:22:36;5.37;118.99
65559;DHT22;52203;51.998;5.140;2023-04-24T04:25:02;5.32;118.99
65559;DHT22;52203;51.998;5.140;2023-04-24T04:27:27;5.31;118.99
65559;DHT22;52203;51.998;5.140;2023-04-24T04:29:54;5.39;118.99
65559;DHT22;52203;51.998;5.140;2023-04-24T04:32:21;5.39;118.99
65559;DHT22;52203;51.998;5.140;2023-04-24T04:34:47;5.39;118.99
65559;DHT22;52203;51.998;5.140;2023-04-24T04:37:14;5.40;118.99
65559;DHT22;52203;51.998;5.140;2023-04-24T04:39:40;5.38;118.99
65559;DHT22;52203;51.998;5.140;2023-04-24T04:42:06;5.38;118.99
65559;DHT22;52203;51.998;5.140;2023-04-24T04:44:32;5.37;118.99
65559;DHT22;52203;51.998;5.140;2023-04-24T04:46:58;5.35;118.99
65559;DHT22;52203;51.998;5.140;2023-04-24T04:49:24;4.88;118.99
65559;DHT22;52203;51.998;5.140;2023-04-24T04:51:50;4.92;118.99
65559;DHT22;52203;51.998;5.140;2023-04-24T04:54:16;4.95;118.99
65559;DHT22;52203;51.998;5.140;2023-04-24T04:56:41;5.08;118.99
65559;DHT22;52203;51.998;5.140;2023-04-24T04:59:07;5.00;118.99
65559;DHT22;52203;51.998;5.140;2023-04-24T05:01:32;5.11;118.99
65559;DHT22;52203;51.998;5.140;2023-04-24T05:03:58;5.19;118.99
65559;DHT22;52203;51.998;5.140;2023-04-24T05:06:24;5.16;118.99
65559;DHT22;52203;51.998;5.140;2023-04-24T05:08:49;5.22;118.99
65559;DHT22;52203;51.998;5.140;2023-04-24T05:11:16;5.21;118.99
65559;DHT22;52203;51.998;5.140;2023-04-24T05:13:41;5.20;118.99
65559;DHT22;52203;51.998;5.140;2023-04-24T05:16:07;5.23;118.99
65559;DHT22;52203;51.998;5.140;2023-04-24T05:18:32;5.20;118.99
65559;DHT22;52203;51.998;5.140;2023-04-24T05:20:58;5.21;118.99
65559;DHT22;52203;51.998;5.140;2023-04-24T05:23:23;5.20;118.99
65559;DHT22;52203;51.998;5.140;2023-04-24T05:25:49;5.18;118.99
65559;DHT22;52203;51.998;5.140;2023-04-24T05:28:14;5.17;118.99
65559;DHT22;52203;51.998;5.140;2023-04-24T05:30:40;5.02;118.99
65559;DHT22;52203;51.998;5.140;2023-04-24T05:33:06;5.15;118.99
65559;DHT22;52203;51.998;5.140;2023-04-24T05:35:31;5.09;118.99
65559;DHT22;52203;51.998;5.140;2023-04-24T05:37:57;5.01;118.99
65559;DHT22;52203;51.998;5.140;2023-04-24T05:40:22;5.10;118.99
65559;DHT22;52203;51.998;5.140;2023-04-24T05:42:48;5.04;118.99
65559;DHT22;52203;51.998;5.140;2023-04-24T05:45:13;5.19;118.99
65559;DHT22;52203;51.998;5.140;2023-04-24T05:47:44;5.13;118.99
65559;DHT22;52203;51.998;5.140;2023-04-24T05:50:10;5.04;118.99
65559;DHT22;52203;51.998;5.140;2023-04-24T05:52:36;5.16;118.99
65559;DHT22;52203;51.998;5.140;2023-04-24T05:55:02;5.11;118.99
65559;DHT22;52203;51.998;5.140;2023-04-24T05:57:27;5.22;118.99
65559;DHT22;52203;51.998;5.140;2023-04-24T05:59:53;5.11;118.99
65559;DHT22;52203;51.998;5.140;2023-04-24T06:02:18;5.25;118.99
65559;DHT22;52203;51.998;5.140;2023-04-24T06:04:44;5.20;118.99
65559;DHT22;52203;51.998;5.140;2023-04-24T06:07:13;5.30;118.99
65559;DHT22;52203;51.998;5.140;2023-04-24T06:09:38;5.20;118.99
65559;DHT22;52203;51.998;5.140;2023-04-24T06:12:04;5.32;118.99
65559;DHT22;52203;51.998;5.140;2023-04-24T06:14:30;5.33;118.99
65559;DHT22;52203;51.998;5.140;2023-04-24T06:16:55;5.35;118.99
65559;DHT22;52203;51.998;5.140;2023-04-24T06:19:21;5.24;118.99
65559;DHT22;52203;51.998;5.140;2023-04-24T06:21:46;5.30;118.99
65559;DHT22;52203;51.998;5.140;2023-04-24T06:24:14;5.25;118.99
65559;DHT22;52203;51.998;5.140;2023-04-24T06:26:39;5.27;118.99
65559;DHT22;52203;51.998;5.140;2023-04-24T06:29:06;5.20;118.99
65559;DHT22;52203;51.998;5.140;2023-04-24T06:31:32;5.18;118.99
65559;DHT22;52203;51.998;5.140;2023-04-24T06:34:02;5.17;118.99
65559;DHT22;52203;51.998;5.140;2023-04-24T06:36:28;5.16;118.99
65559;DHT22;52203;51.998;5.140;2023-04-24T06:38:54;5.11;118.99
65559;DHT22;52203;51.998;5.140;2023-04-24T06:41:19;5.12;118.99
65559;DHT22;52203;51.998;5.140;2023-04-24T06:43:45;5.09;118.99
65559;DHT22;52203;51.998;5.140;2023-04-24T06:46:10;5.05;118.99
65559;DHT22;52203;51.998;5.140;2023-04-24T06:48:37;4.97;118.99
65559;DHT22;52203;51.998;5.140;2023-04-24T06:51:02;4.94;118.99
65559;DHT22;52203;51.998;5.140;2023-04-24T06:53:28;4.76;118.99
65559;DHT22;52203;51.998;5.140;2023-04-24T06:56:00;4.66;118.99
65559;DHT22;52203;51.998;5.140;2023-04-24T06:58:25;4.73;118.99
65559;DHT22;52203;51.998;5.140;2023-04-24T07:00:51;4.64;118.99
65559;DHT22;52203;51.998;5.140;2023-04-24T07:03:16;4.88;118.99
65559;DHT22;52203;51.998;5.140;2023-04-24T07:05:42;4.87;118.99
65559;DHT22;52203;51.998;5.140;2023-04-24T07:08:08;4.81;118.99
65559;DHT22;52203;51.998;5.140;2023-04-24T07:10:34;4.79;118.99
65559;DHT22;52203;51.998;5.140;2023-04-24T07:13:00;4.79;118.99
65559;DHT22;52203;51.998;5.140;2023-04-24T07:15:26;4.82;118.99
65559;DHT22;52203;51.998;5.140;2023-04-24T07:17:52;4.88;118.99
65559;DHT22;52203;51.998;5.140;2023-04-24T07:20:17;4.91;118.99
65559;DHT22;52203;51.998;5.140;2023-04-24T07:22:43;4.78;118.99
65559;DHT22;52203;51.998;5.140;2023-04-24T07:25:09;4.73;118.99
65559;DHT22;52203;51.998;5.140;2023-04-24T07:27:37;4.84;118.99
65559;DHT22;52203;51.998;5.140;2023-04-24T07:30:04;5.01;118.99
65559;DHT22;52203;51.998;5.140;2023-04-24T07:32:30;5.07;118.99
65559;DHT22;52203;51.998;5.140;2023-04-24T07:34:55;5.09;118.99
65559;DHT22;52203;51.998;5.140;2023-04-24T07:37:21;5.10;118.99
65559;DHT22;52203;51.998;5.140;2023-04-24T07:39:47;5.05;118.99
65559;DHT22;52203;51.998;5.140;2023-04-24T07:42:12;5.15;118.99
65559;DHT22;52203;51.998;5.140;2023-04-24T07:44:38;5.11;118.99
65559;DHT22;52203;51.998;5.140;2023-04-24T07:47:03;5.11;118.99
65559;DHT22;52203;51.998;5.140;2023-04-24T07:49:29;5.09;118.99
65559;DHT22;52203;51.998;5.140;2023-04-24T07:51:54;5.06;118.99
65559;DHT22;52203;51.998;5.140;2023-04-24T07:54:20;5.06;118.99
65559;DHT22;52203;51.998;5.140;2023-04-24T07:56:46;5.07;118.99
65559;DHT22;52203;51.998;5.140;2023-04-24T07:59:11;5.04;118.99
65559;DHT22;52203;51.998;5.140;2023-04-24T08:01:37;5.03;118.99
65559;DHT22;52203;51.998;5.140;2023-04-24T08:04:03;5.02;118.99
65559;DHT22;52203;51.998;5.140;2023-04-24T08:06:28;4.94;118.99
65559;DHT22;52203;51.998;5.140;2023-04-24T08:08:56;5.04;118.99
65559;DHT22;52203;51.998;5.140;2023-04-24T08:11:22;4.95;118.99
65559;DHT22;52203;51.998;5.140;2023-04-24T08:13:47;4.90;118.99
65559;DHT22;52203;51.998;5.140;2023-04-24T08:16:13;4.72;118.99
65559;DHT22;52203;51.998;5.140;2023-04-24T08:18:39;4.84;118.99
65559;DHT22;52203;51.998;5.140;2023-04-24T08:21:04;5.12;118.99
65559;DHT22;52203;51.998;5.140;2023-04-24T08:23:30;5.20;118.99
65559;DHT22;52203;51.998;5.140;2023-04-24T08:25:55;5.19;118.99
65559;DHT22;52203;51.998;5.140;2023-04-24T08:28:21;5.12;118.99
65559;DHT22;52203;51.998;5.140;2023-04-24T08:30:47;5.18;118.99
65559;DHT22;52203;51.998;5.140;2023-04-24T08:33:14;5.24;118.99
65559;DHT22;52203;51.998;5.140;2023-04-24T08:35:39;5.34;118.99
65559;DHT22;52203;51.998;5.140;2023-04-24T08:38:05;5.39;118.99
65559;DHT22;52203;51.998;5.140;2023-04-24T08:40:33;5.51;118.99
65559;DHT22;52203;51.998;5.140;2023-04-24T08:42:59;5.60;118.99
65559;DHT22;52203;51.998;5.140;2023-04-24T08:45:25;5.64;118.99
65559;DHT22;52203;51.998;5.140;2023-04-24T08:47:52;5.67;118.99
65559;DHT22;52203;51.998;5.140;2023-04-24T08:50:20;5.71;118.99
65559;DHT22;52203;51.998;5.140;2023-04-24T08:52:46;5.63;118.99
65559;DHT22;52203;51.998;5.140;2023-04-24T08:55:12;5.72;118.99
65559;DHT22;52203;51.998;5.140;2023-04-24T08:57:37;5.74;118.99
65559;DHT22;52203;51.998;5.140;2023-04-24T09:00:05;5.87;118.99
65559;DHT22;52203;51.998;5.140;2023-04-24T09:02:31;5.99;118.99
65559;DHT22;52203;51.998;5.140;2023-04-24T09:05:00;6.02;118.99
65559;DHT22;52203;51.998;5.140;2023-04-24T09:07:27;5.95;118.99
65559;DHT22;52203;51.998;5.140;2023-04-24T09:09:54;5.96;118.99
65559;DHT22;52203;51.998;5.140;2023-04-24T09:12:21;5.98;118.99
65559;DHT22;52203;51.998;5.140;2023-04-24T09:14:48;6.00;118.99
65559;DHT22;52203;51.998;5.140;2023-04-24T09:17:13;5.99;118.99
65559;DHT22;52203;51.998;5.140;2023-04-24T09:19:40;6.06;118.99
65559;DHT22;52203;51.998;5.140;2023-04-24T09:22:06;6.01;118.99
65559;DHT22;52203;51.998;5.140;2023-04-24T09:24:33;5.82;118.99
65559;DHT22;52203;51.998;5.140;2023-04-24T09:26:58;5.76;118.99
65559;DHT22;52203;51.998;5.140;2023-04-24T09:29:24;5.85;118.99
65559;DHT22;52203;51.998;5.140;2023-04-24T09:31:50;5.99;118.99
65559;DHT22;52203;51.998;5.140;2023-04-24T09:34:25;6.07;118.99
65559;DHT22;52203;51.998;5.140;2023-04-24T09:36:51;6.22;118.99
65559;DHT22;52203;51.998;5.140;2023-04-24T09:39:17;6.21;118.99
65559;DHT22;52203;51.998;5.140;2023-04-24T09:41:49;6.36;118.99
65559;DHT22;52203;51.998;5.140;2023-04-24T09:44:15;6.41;118.99
65559;DHT22;52203;51.998;5.140;2023-04-24T09:46:44;6.41;118.99
65559;DHT22;52203;51.998;5.140;2023-04-24T09:49:14;6.49;118.99
65559;DHT22;52203;51.998;5.140;2023-04-24T09:51:40;6.45;118.99
65559;DHT22;52203;51.998;5.140;2023-04-24T09:54:16;6.44;118.99
65559;DHT22;52203;51.998;5.140;2023-04-24T09:56:47;6.48;118.99
65559;DHT22;52203;51.998;5.140;2023-04-24T09:59:14;6.49;118.99
65559;DHT22;52203;51.998;5.140;2023-04-24T10:01:39;6.51;118.99
65559;DHT22;52203;51.998;5.140;2023-04-24T10:04:18;6.56;118.99
65559;DHT22;52203;51.998;5.140;2023-04-24T10:06:45;6.58;118.99
65559;DHT22;52203;51.998;5.140;2023-04-24T10:09:11;6.56;118.99
65559;DHT22;52203;51.998;5.140;2023-04-24T10:11:41;6.57;118.99
65559;DHT22;52203;51.998;5.140;2023-04-24T10:14:09;6.56;118.99
65559;DHT22;52203;51.998;5.140;2023-04-24T10:16:36;6.55;118.99
65559;DHT22;52203;51.998;5.140;2023-04-24T10:19:02;6.52;118.99
65559;DHT22;52203;51.998;5.140;2023-04-24T10:21:28;6.59;118.99
65559;DHT22;52203;51.998;5.140;2023-04-24T10:23:55;6.69;118.99
65559;DHT22;52203;51.998;5.140;2023-04-24T10:26:21;6.82;118.99
65559;DHT22;52203;51.998;5.140;2023-04-24T10:28:48;7.00;118.99
65559;DHT22;52203;51.998;5.140;2023-04-24T10:31:14;7.12;118.99
65559;DHT22;52203;51.998;5.140;2023-04-24T10:33:43;7.02;118.99
65559;DHT22;52203;51.998;5.140;2023-04-24T10:36:11;7.01;118.99
65559;DHT22;52203;51.998;5.140;2023-04-24T10:38:39;6.94;118.99
65559;DHT22;52203;51.998;5.140;2023-04-24T10:41:08;6.74;118.99
65559;DHT22;52203;51.998;5.140;2023-04-24T10:43:42;6.74;118.99
65559;DHT22;52203;51.998;5.140;2023-04-24T10:46:08;6.79;118.99
65559;DHT22;52203;51.998;5.140;2023-04-24T10:48:36;7.05;118.99
65559;DHT22;52203;51.998;5.140;2023-04-24T10:51:11;7.34;118.99
65559;DHT22;52203;51.998;5.140;2023-04-24T10:53:37;7.46;118.99
65559;DHT22;52203;51.998;5.140;2023-04-24T10:56:05;7.68;118.99
65559;DHT22;52203;51.998;5.140;2023-04-24T10:58:38;7.88;118.99
65559;DHT22;52203;51.998;5.140;2023-04-24T11:01:04;8.04;118.99
65559;DHT22;52203;51.998;5.140;2023-04-24T11:03:31;8.23;118.99
65559;DHT22;52203;51.998;5.140;2023-04-24T11:06:05;8.35;118.99
65559;DHT22;52203;51.998;5.140;2023-04-24T11:08:38;8.41;118.99
65559;DHT22;52203;51.998;5.140;2023-04-24T11:11:14;8.48;118.99
65559;DHT22;52203;51.998;5.140;2023-04-24T11:16:30;8.66;118.99
65559;DHT22;52203;51.998;5.140;2023-04-24T11:29:40;8.67;118.99
65559;DHT22;52203;51.998;5.140;2023-04-24T11:32:19;8.50;118.99
65559;DHT22;52203;51.998;5.140;2023-04-24T11:34:57;8.30;118.99
65559;DHT22;52203;51.998;5.140;2023-04-24T11:37:26;8.03;118.99
65559;DHT22;52203;51.998;5.140;2023-04-24T11:39:56;7.75;118.99
65559;DHT22;52203;51.998;5.140;2023-04-24T11:42:22;7.56;118.99
65559;DHT22;52203;51.998;5.140;2023-04-24T11:44:55;7.19;118.99
65559;DHT22;52203;51.998;5.140;2023-04-24T11:47:28;6.96;118.99
65559;DHT22;52203;51.998;5.140;2023-04-24T11:49:54;6.73;118.99
65559;DHT22;52203;51.998;5.140;2023-04-24T11:52:19;6.53;118.99
65559;DHT22;52203;51.998;5.140;2023-04-24T11:54:49;6.41;118.99
65559;DHT22;52203;51.998;5.140;2023-04-24T11:57:16;6.25;118.99
65559;DHT22;52203;51.998;5.140;2023-04-24T11:59:41;6.00;118.99
65559;DHT22;52203;51.998;5.140;2023-04-24T12:02:07;5.85;118.99
65559;DHT22;52203;51.998;5.140;2023-04-24T12:04:40;5.71;118.99
65559;DHT22;52203;51.998;5.140;2023-04-24T12:07:06;6.35;118.99
65559;DHT22;52203;51.998;5.140;2023-04-24T12:09:48;6.11;118.99
65559;DHT22;52203;51.998;5.140;2023-04-24T12:12:16;5.45;118.99
65559;DHT22;52203;51.998;5.140;2023-04-24T12:14:56;5.96;118.99
65559;DHT22;52203;51.998;5.140;2023-04-24T12:17:32;6.01;118.99
65559;DHT22;52203;51.998;5.140;2023-04-24T12:20:06;6.23;118.99
65559;DHT22;52203;51.998;5.140;2023-04-24T12:22:49;6.10;118.99
65559;DHT22;52203;51.998;5.140;2023-04-24T12:25:17;5.97;118.99
65559;DHT22;52203;51.998;5.140;2023-04-24T12:27:51;5.95;118.99
65559;DHT22;52203;51.998;5.140;2023-04-24T12:30:17;6.12;118.99
65559;DHT22;52203;51.998;5.140;2023-04-24T12:32:45;6.09;118.99
65559;DHT22;52203;51.998;5.140;2023-04-24T12:35:10;6.12;118.99
65559;DHT22;52203;51.998;5.140;2023-04-24T12:37:36;6.13;118.99
65559;DHT22;52203;51.998;5.140;2023-04-24T12:42:34;5.15;118.99
65559;DHT22;52203;51.998;5.140;2023-04-24T12:45:03;5.16;118.99
65559;DHT22;52203;51.998;5.140;2023-04-24T12:47:31;5.19;118.99
65559;DHT22;52203;51.998;5.140;2023-04-24T12:49:57;5.22;118.99
65559;DHT22;52203;51.998;5.140;2023-04-24T12:52:23;5.26;118.99
65559;DHT22;52203;51.998;5.140;2023-04-24T12:54:50;5.34;118.99
65559;DHT22;52203;51.998;5.140;2023-04-24T12:57:17;5.41;118.99
65559;DHT22;52203;51.998;5.140;2023-04-24T12:59:46;5.49;118.99
65559;DHT22;52203;51.998;5.140;2023-04-24T13:02:11;5.61;118.99
65559;DHT22;52203;51.998;5.140;2023-04-24T13:04:37;5.71;118.99
65559;DHT22;52203;51.998;5.140;2023-04-24T13:07:02;5.82;118.99
65559;DHT22;52203;51.998;5.140;2023-04-24T13:09:28;6.06;118.99
65559;DHT22;52203;51.998;5.140;2023-04-24T13:11:54;6.34;118.99
65559;DHT22;52203;51.998;5.140;2023-04-24T13:14:22;6.71;118.99
65559;DHT22;52203;51.998;5.140;2023-04-24T13:16:48;7.91;118.99
65559;DHT22;52203;51.998;5.140;2023-04-24T13:19:14;7.27;118.99
65559;DHT22;52203;51.998;5.140;2023-04-24T13:21:40;8.07;118.99
65559;DHT22;52203;51.998;5.140;2023-04-24T13:24:05;7.43;118.99
65559;DHT22;52203;51.998;5.140;2023-04-24T13:26:33;8.03;118.99
65559;DHT22;52203;51.998;5.140;2023-04-24T13:28:58;8.06;118.99
65559;DHT22;52203;51.998;5.140;2023-04-24T13:31:24;7.16;118.99
65559;DHT22;52203;51.998;5.140;2023-04-24T13:33:49;7.86;118.99
65559;DHT22;52203;51.998;5.140;2023-04-24T13:36:15;8.41;118.99
65559;DHT22;52203;51.998;5.140;2023-04-24T13:38:43;8.50;118.99
65559;DHT22;52203;51.998;5.140;2023-04-24T13:41:08;7.74;118.99
65559;DHT22;52203;51.998;5.140;2023-04-24T13:43:35;8.61;118.99
65559;DHT22;52203;51.998;5.140;2023-04-24T13:46:00;8.64;118.99
65559;DHT22;52203;51.998;5.140;2023-04-24T13:48:28;8.72;118.99
65559;DHT22;52203;51.998;5.140;2023-04-24T13:50:54;8.61;118.99
65559;DHT22;52203;51.998;5.140;2023-04-24T13:53:19;8.51;118.99
65559;DHT22;52203;51.998;5.140;2023-04-24T13:55:45;8.53;118.99
65559;DHT22;52203;51.998;5.140;2023-04-24T13:58:10;8.60;118.99
65559;DHT22;52203;51.998;5.140;2023-04-24T14:00:36;8.71;118.99
65559;DHT22;52203;51.998;5.140;2023-04-24T14:03:01;8.77;118.99
65559;DHT22;52203;51.998;5.140;2023-04-24T14:05:27;8.73;118.99
65559;DHT22;52203;51.998;5.140;2023-04-24T14:07:52;8.66;118.99
65559;DHT22;52203;51.998;5.140;2023-04-24T14:10:18;8.59;118.99
65559;DHT22;52203;51.998;5.140;2023-04-24T14:12:43;8.53;118.99
65559;DHT22;52203;51.998;5.140;2023-04-24T14:15:09;8.46;118.99
65559;DHT22;52203;51.998;5.140;2023-04-24T14:17:35;7.49;118.99
65559;DHT22;52203;51.998;5.140;2023-04-24T14:20:01;7.37;118.99
65559;DHT22;52203;51.998;5.140;2023-04-24T14:22:27;7.30;118.99
65559;DHT22;52203;51.998;5.140;2023-04-24T14:24:52;7.24;118.99
65559;DHT22;52203;51.998;5.140;2023-04-24T14:27:18;7.09;118.99
65559;DHT22;52203;51.998;5.140;2023-04-24T14:29:43;7.02;118.99
65559;DHT22;52203;51.998;5.140;2023-04-24T14:32:10;7.07;118.99
65559;DHT22;52203;51.998;5.140;2023-04-24T14:34:36;7.13;118.99
65559;DHT22;52203;51.998;5.140;2023-04-24T14:37:01;7.24;118.99
65559;DHT22;52203;51.998;5.140;2023-04-24T14:39:28;7.32;118.99
65559;DHT22;52203;51.998;5.140;2023-04-24T14:41:53;7.47;118.99
65559;DHT22;52203;51.998;5.140;2023-04-24T14:44:19;7.42;118.99
65559;DHT22;52203;51.998;5.140;2023-04-24T14:46:44;7.47;118.99
65559;DHT22;52203;51.998;5.140;2023-04-24T14:49:10;7.39;118.99
65559;DHT22;52203;51.998;5.140;2023-04-24T14:51:37;7.18;118.99
65559;DHT22;52203;51.998;5.140;2023-04-24T14:54:03;7.00;118.99
65559;DHT22;52203;51.998;5.140;2023-04-24T14:56:28;6.78;118.99
65559;DHT22;52203;51.998;5.140;2023-04-24T14:58:55;6.60;118.99
65559;DHT22;52203;51.998;5.140;2023-04-24T15:01:21;6.40;118.99
65559;DHT22;52203;51.998;5.140;2023-04-24T15:03:47;6.23;118.99
65559;DHT22;52203;51.998;5.140;2023-04-24T15:06:12;6.19;118.99
65559;DHT22;52203;51.998;5.140;2023-04-24T15:08:38;6.21;118.99
65559;DHT22;52203;51.998;5.140;2023-04-24T15:11:04;6.22;118.99
65559;DHT22;52203;51.998;5.140;2023-04-24T15:13:29;6.20;118.99
65559;DHT22;52203;51.998;5.140;2023-04-24T15:15:55;6.20;118.99
65559;DHT22;52203;51.998;5.140;2023-04-24T15:18:20;6.16;118.99
65559;DHT22;52203;51.998;5.140;2023-04-24T15:20:46;6.20;118.99
65559;DHT22;52203;51.998;5.140;2023-04-24T15:23:12;6.24;118.99
65559;DHT22;52203;51.998;5.140;2023-04-24T15:25:37;6.28;118.99
65559;DHT22;52203;51.998;5.140;2023-04-24T15:28:03;6.30;118.99
65559;DHT22;52203;51.998;5.140;2023-04-24T15:30:30;6.39;118.99
65559;DHT22;52203;51.998;5.140;2023-04-24T15:32:56;6.43;118.99
65559;DHT22;52203;51.998;5.140;2023-04-24T15:35:21;6.48;118.99
65559;DHT22;52203;51.998;5.140;2023-04-24T15:37:47;6.50;118.99
65559;DHT22;52203;51.998;5.140;2023-04-24T15:40:13;6.53;118.99
65559;DHT22;52203;51.998;5.140;2023-04-24T15:42:41;6.54;118.99